sensor_id;sensor_type;location;lat;lon;timestamp;P1;durP1;ratioP1;P2;durP2;ratioP2
20535;SDS011;10426;49.420;8.390;2023-04-16T00:00:05;10.32;;;9.50;;
20535;SDS011;10426;49.420;8.390;2023-04-16T00:02:32;10.68;;;9.77;;
20535;SDS011;10426;49.420;8.390;2023-04-16T00:04:58;10.82;;;10.02;;
20535;SDS011;10426;49.420;8.390;2023-04-16T00:07:25;10.33;;;9.63;;
20535;SDS011;10426;49.420;8.390;2023-04-16T00:09:52;10.85;;;10.05;;
20535;SDS011;10426;49.420;8.390;2023-04-16T00:12:18;10.93;;;10.13;;
20535;SDS011;10426;49.420;8.390;2023-04-16T00:14:46;10.77;;;9.97;;
20535;SDS011;10426;49.420;8.390;2023-04-16T00:17:13;11.18;;;10.38;;
20535;SDS011;10426;49.420;8.390;2023-04-16T00:19:40;10.65;;;9.75;;
20535;SDS011;10426;49.420;8.390;2023-04-16T00:22:06;11.27;;;10.38;;
20535;SDS011;10426;49.420;8.390;2023-04-16T00:24:33;10.75;;;9.95;;
20535;SDS011;10426;49.420;8.390;2023-04-16T00:27:00;10.88;;;10.02;;
20535;SDS011;10426;49.420;8.390;2023-04-16T00:29:26;10.98;;;10.15;;
20535;SDS011;10426;49.420;8.390;2023-04-16T00:31:56;10.63;;;9.82;;
20535;SDS011;10426;49.420;8.390;2023-04-16T00:34:23;10.77;;;9.88;;
20535;SDS011;10426;49.420;8.390;2023-04-16T00:36:50;11.20;;;10.30;;
20535;SDS011;10426;49.420;8.390;2023-04-16T00:39:16;11.35;;;10.45;;
20535;SDS011;10426;49.420;8.390;2023-04-16T00:41:43;10.57;;;9.80;;
20535;SDS011;10426;49.420;8.390;2023-04-16T00:44:09;10.75;;;9.85;;
20535;SDS011;10426;49.420;8.390;2023-04-16T00:46:36;10.40;;;9.60;;
20535;SDS011;10426;49.420;8.390;2023-04-16T00:49:04;10.65;;;9.85;;
20535;SDS011;10426;49.420;8.390;2023-04-16T00:51:31;10.52;;;9.65;;
20535;SDS011;10426;49.420;8.390;2023-04-16T00:53:57;10.40;;;9.60;;
20535;SDS011;10426;49.420;8.390;2023-04-16T00:56:24;10.50;;;9.70;;
20535;SDS011;10426;49.420;8.390;2023-04-16T00:58:51;10.18;;;9.45;;
20535;SDS011;10426;49.420;8.390;2023-04-16T01:01:17;10.40;;;9.60;;
20535;SDS011;10426;49.420;8.390;2023-04-16T01:03:45;10.30;;;9.50;;
20535;SDS011;10426;49.420;8.390;2023-04-16T01:06:14;10.63;;;9.82;;
20535;SDS011;10426;49.420;8.390;2023-04-16T01:08:42;10.23;;;9.43;;
20535;SDS011;10426;49.420;8.390;2023-04-16T01:11:09;9.97;;;9.27;;
20535;SDS011;10426;49.420;8.390;2023-04-16T01:13:36;10.57;;;9.77;;
20535;SDS011;10426;49.420;8.390;2023-04-16T01:16:04;10.82;;;10.00;;
20535;SDS011;10426;49.420;8.390;2023-04-16T01:18:31;10.85;;;10.05;;
20535;SDS011;10426;49.420;8.390;2023-04-16T01:20:59;11.30;;;10.20;;
20535;SDS011;10426;49.420;8.390;2023-04-16T01:23:25;10.60;;;9.70;;
20535;SDS011;10426;49.420;8.390;2023-04-16T01:25:52;10.95;;;10.15;;
20535;SDS011;10426;49.420;8.390;2023-04-16T01:28:19;11.35;;;10.55;;
20535;SDS011;10426;49.420;8.390;2023-04-16T01:30:45;10.93;;;10.02;;
20535;SDS011;10426;49.420;8.390;2023-04-16T01:33:12;10.90;;;10.10;;
20535;SDS011;10426;49.420;8.390;2023-04-16T01:35:40;11.50;;;10.52;;
20535;SDS011;10426;49.420;8.390;2023-04-16T01:38:08;11.15;;;10.30;;
20535;SDS011;10426;49.420;8.390;2023-04-16T01:40:35;10.52;;;9.73;;
20535;SDS011;10426;49.420;8.390;2023-04-16T01:43:02;11.18;;;10.18;;
20535;SDS011;10426;49.420;8.390;2023-04-16T01:45:29;10.93;;;10.13;;
20535;SDS011;10426;49.420;8.390;2023-04-16T01:47:56;10.33;;;9.53;;
20535;SDS011;10426;49.420;8.390;2023-04-16T01:50:23;10.90;;;10.10;;
20535;SDS011;10426;49.420;8.390;2023-04-16T01:52:49;11.00;;;10.10;;
20535;SDS011;10426;49.420;8.390;2023-04-16T01:55:18;10.40;;;9.60;;
20535;SDS011;10426;49.420;8.390;2023-04-16T01:57:44;11.20;;;10.30;;
20535;SDS011;10426;49.420;8.390;2023-04-16T02:00:11;10.25;;;9.48;;
20535;SDS011;10426;49.420;8.390;2023-04-16T02:02:38;10.80;;;10.00;;
20535;SDS011;10426;49.420;8.390;2023-04-16T02:05:05;11.13;;;10.20;;
20535;SDS011;10426;49.420;8.390;2023-04-16T02:07:31;11.03;;;10.13;;
20535;SDS011;10426;49.420;8.390;2023-04-16T02:09:58;11.05;;;10.15;;
20535;SDS011;10426;49.420;8.390;2023-04-16T02:12:26;11.30;;;10.40;;
20535;SDS011;10426;49.420;8.390;2023-04-16T02:14:53;11.45;;;10.55;;
20535;SDS011;10426;49.420;8.390;2023-04-16T02:17:19;11.38;;;10.48;;
20535;SDS011;10426;49.420;8.390;2023-04-16T02:19:46;11.35;;;10.45;;
20535;SDS011;10426;49.420;8.390;2023-04-16T02:22:13;11.38;;;10.48;;
20535;SDS011;10426;49.420;8.390;2023-04-16T02:24:40;11.37;;;10.37;;
20535;SDS011;10426;49.420;8.390;2023-04-16T02:27:06;11.80;;;10.80;;
20535;SDS011;10426;49.420;8.390;2023-04-16T02:29:34;11.57;;;10.65;;
20535;SDS011;10426;49.420;8.390;2023-04-16T02:32:01;11.50;;;10.50;;
20535;SDS011;10426;49.420;8.390;2023-04-16T02:34:27;12.38;;;11.27;;
20535;SDS011;10426;49.420;8.390;2023-04-16T02:36:54;12.03;;;11.03;;
20535;SDS011;10426;49.420;8.390;2023-04-16T02:39:22;11.68;;;10.77;;
20535;SDS011;10426;49.420;8.390;2023-04-16T02:41:49;11.77;;;10.87;;
20535;SDS011;10426;49.420;8.390;2023-04-16T02:44:16;11.75;;;10.75;;
20535;SDS011;10426;49.420;8.390;2023-04-16T02:46:44;12.75;;;11.75;;
20535;SDS011;10426;49.420;8.390;2023-04-16T02:49:11;12.15;;;11.15;;
20535;SDS011;10426;49.420;8.390;2023-04-16T02:51:37;12.10;;;11.10;;
20535;SDS011;10426;49.420;8.390;2023-04-16T02:54:04;12.32;;;11.32;;
20535;SDS011;10426;49.420;8.390;2023-04-16T02:56:31;12.68;;;11.57;;
20535;SDS011;10426;49.420;8.390;2023-04-16T02:58:57;12.80;;;11.70;;
20535;SDS011;10426;49.420;8.390;2023-04-16T03:01:24;13.13;;;12.02;;
20535;SDS011;10426;49.420;8.390;2023-04-16T03:03:52;12.95;;;11.85;;
20535;SDS011;10426;49.420;8.390;2023-04-16T03:06:18;13.80;;;12.60;;
20535;SDS011;10426;49.420;8.390;2023-04-16T03:08:45;13.93;;;12.63;;
20535;SDS011;10426;49.420;8.390;2023-04-16T03:11:12;13.27;;;12.17;;
20535;SDS011;10426;49.420;8.390;2023-04-16T03:13:38;13.25;;;12.15;;
20535;SDS011;10426;49.420;8.390;2023-04-16T03:16:05;13.73;;;12.52;;
20535;SDS011;10426;49.420;8.390;2023-04-16T03:18:32;14.15;;;12.93;;
20535;SDS011;10426;49.420;8.390;2023-04-16T03:21:00;13.73;;;12.52;;
20535;SDS011;10426;49.420;8.390;2023-04-16T03:23:26;13.00;;;11.98;;
20535;SDS011;10426;49.420;8.390;2023-04-16T03:25:53;13.68;;;12.50;;
20535;SDS011;10426;49.420;8.390;2023-04-16T03:28:20;13.48;;;12.38;;
20535;SDS011;10426;49.420;8.390;2023-04-16T03:30:49;13.60;;;12.40;;
20535;SDS011;10426;49.420;8.390;2023-04-16T03:33:16;13.10;;;11.90;;
20535;SDS011;10426;49.420;8.390;2023-04-16T03:35:43;13.32;;;12.23;;
20535;SDS011;10426;49.420;8.390;2023-04-16T03:38:11;13.65;;;12.45;;
20535;SDS011;10426;49.420;8.390;2023-04-16T03:40:38;13.20;;;12.02;;
20535;SDS011;10426;49.420;8.390;2023-04-16T03:43:04;13.55;;;12.35;;
20535;SDS011;10426;49.420;8.390;2023-04-16T03:45:31;13.23;;;12.13;;
20535;SDS011;10426;49.420;8.390;2023-04-16T03:47:57;13.20;;;12.00;;
20535;SDS011;10426;49.420;8.390;2023-04-16T03:50:24;13.88;;;12.63;;
20535;SDS011;10426;49.420;8.390;2023-04-16T03:52:51;14.05;;;12.75;;
20535;SDS011;10426;49.420;8.390;2023-04-16T03:55:19;13.82;;;12.52;;
20535;SDS011;10426;49.420;8.390;2023-04-16T03:57:45;14.38;;;13.07;;
20535;SDS011;10426;49.420;8.390;2023-04-16T04:00:12;14.55;;;13.15;;
20535;SDS011;10426;49.420;8.390;2023-04-16T04:02:39;14.07;;;12.88;;
20535;SDS011;10426;49.420;8.390;2023-04-16T04:05:05;14.50;;;13.20;;
20535;SDS011;10426;49.420;8.390;2023-04-16T04:07:32;14.05;;;12.77;;
20535;SDS011;10426;49.420;8.390;2023-04-16T04:09:59;14.30;;;13.00;;
20535;SDS011;10426;49.420;8.390;2023-04-16T04:12:30;14.17;;;12.80;;
20535;SDS011;10426;49.420;8.390;2023-04-16T04:14:57;13.93;;;12.63;;
20535;SDS011;10426;49.420;8.390;2023-04-16T04:17:24;13.57;;;12.32;;
20535;SDS011;10426;49.420;8.390;2023-04-16T04:19:50;13.70;;;12.50;;
20535;SDS011;10426;49.420;8.390;2023-04-16T04:22:18;14.10;;;12.80;;
20535;SDS011;10426;49.420;8.390;2023-04-16T04:24:44;13.98;;;12.57;;
20535;SDS011;10426;49.420;8.390;2023-04-16T04:27:11;13.50;;;12.20;;
20535;SDS011;10426;49.420;8.390;2023-04-16T04:29:39;11.93;;;10.93;;
20535;SDS011;10426;49.420;8.390;2023-04-16T04:32:06;12.10;;;11.00;;
20535;SDS011;10426;49.420;8.390;2023-04-16T04:34:32;12.02;;;10.93;;
20535;SDS011;10426;49.420;8.390;2023-04-16T04:36:59;11.85;;;10.82;;
20535;SDS011;10426;49.420;8.390;2023-04-16T04:39:25;11.77;;;10.73;;
20535;SDS011;10426;49.420;8.390;2023-04-16T04:41:52;11.35;;;10.43;;
20535;SDS011;10426;49.420;8.390;2023-04-16T04:44:19;10.93;;;10.00;;
20535;SDS011;10426;49.420;8.390;2023-04-16T04:46:47;11.35;;;10.35;;
20535;SDS011;10426;49.420;8.390;2023-04-16T04:49:13;10.90;;;10.00;;
20535;SDS011;10426;49.420;8.390;2023-04-16T04:51:40;10.93;;;9.93;;
20535;SDS011;10426;49.420;8.390;2023-04-16T04:54:06;10.30;;;9.40;;
20535;SDS011;10426;49.420;8.390;2023-04-16T04:56:33;10.65;;;9.75;;
20535;SDS011;10426;49.420;8.390;2023-04-16T04:59:00;10.50;;;9.60;;
20535;SDS011;10426;49.420;8.390;2023-04-16T05:01:26;10.73;;;9.83;;
20535;SDS011;10426;49.420;8.390;2023-04-16T05:03:54;10.27;;;9.38;;
20535;SDS011;10426;49.420;8.390;2023-04-16T05:06:21;9.98;;;8.98;;
20535;SDS011;10426;49.420;8.390;2023-04-16T05:08:47;10.27;;;9.38;;
20535;SDS011;10426;49.420;8.390;2023-04-16T05:11:14;9.80;;;8.90;;
20535;SDS011;10426;49.420;8.390;2023-04-16T05:13:41;9.77;;;8.88;;
20535;SDS011;10426;49.420;8.390;2023-04-16T05:16:07;9.20;;;8.30;;
20535;SDS011;10426;49.420;8.390;2023-04-16T05:18:34;9.70;;;8.80;;
20535;SDS011;10426;49.420;8.390;2023-04-16T05:21:02;8.77;;;8.05;;
20535;SDS011;10426;49.420;8.390;2023-04-16T05:23:29;9.45;;;8.68;;
20535;SDS011;10426;49.420;8.390;2023-04-16T05:25:55;9.20;;;8.40;;
20535;SDS011;10426;49.420;8.390;2023-04-16T05:28:22;8.90;;;8.10;;
20535;SDS011;10426;49.420;8.390;2023-04-16T05:30:49;9.30;;;8.60;;
20535;SDS011;10426;49.420;8.390;2023-04-16T05:33:16;9.32;;;8.52;;
20535;SDS011;10426;49.420;8.390;2023-04-16T05:35:42;9.20;;;8.50;;
20535;SDS011;10426;49.420;8.390;2023-04-16T05:38:10;8.65;;;7.95;;
20535;SDS011;10426;49.420;8.390;2023-04-16T05:40:37;9.60;;;8.80;;
20535;SDS011;10426;49.420;8.390;2023-04-16T05:43:04;9.38;;;8.38;;
20535;SDS011;10426;49.420;8.390;2023-04-16T05:45:31;9.57;;;8.68;;
20535;SDS011;10426;49.420;8.390;2023-04-16T05:48:04;9.43;;;8.60;;
20535;SDS011;10426;49.420;8.390;2023-04-16T05:50:30;9.00;;;8.30;;
20535;SDS011;10426;49.420;8.390;2023-04-16T05:52:57;9.50;;;8.73;;
20535;SDS011;10426;49.420;8.390;2023-04-16T05:55:25;9.50;;;8.70;;
20535;SDS011;10426;49.420;8.390;2023-04-16T05:57:51;9.35;;;8.55;;
20535;SDS011;10426;49.420;8.390;2023-04-16T06:00:18;9.23;;;8.43;;
20535;SDS011;10426;49.420;8.390;2023-04-16T06:02:45;9.53;;;8.63;;
20535;SDS011;10426;49.420;8.390;2023-04-16T06:05:11;9.38;;;8.57;;
20535;SDS011;10426;49.420;8.390;2023-04-16T06:07:38;9.35;;;8.55;;
20535;SDS011;10426;49.420;8.390;2023-04-16T06:10:05;8.85;;;8.15;;
20535;SDS011;10426;49.420;8.390;2023-04-16T06:12:33;8.85;;;8.10;;
20535;SDS011;10426;49.420;8.390;2023-04-16T06:15:00;8.85;;;8.10;;
20535;SDS011;10426;49.420;8.390;2023-04-16T06:17:26;9.25;;;8.45;;
20535;SDS011;10426;49.420;8.390;2023-04-16T06:19:53;8.90;;;8.10;;
20535;SDS011;10426;49.420;8.390;2023-04-16T06:22:19;9.60;;;8.80;;
20535;SDS011;10426;49.420;8.390;2023-04-16T06:24:46;10.02;;;9.02;;
20535;SDS011;10426;49.420;8.390;2023-04-16T06:27:13;9.82;;;8.82;;
20535;SDS011;10426;49.420;8.390;2023-04-16T06:29:41;9.90;;;9.10;;
20535;SDS011;10426;49.420;8.390;2023-04-16T06:32:07;9.88;;;8.98;;
20535;SDS011;10426;49.420;8.390;2023-04-16T06:34:34;9.45;;;8.65;;
20535;SDS011;10426;49.420;8.390;2023-04-16T06:37:01;9.68;;;8.88;;
20535;SDS011;10426;49.420;8.390;2023-04-16T06:39:27;9.45;;;8.68;;
20535;SDS011;10426;49.420;8.390;2023-04-16T06:41:54;9.63;;;8.82;;
20535;SDS011;10426;49.420;8.390;2023-04-16T06:44:21;9.35;;;8.55;;
20535;SDS011;10426;49.420;8.390;2023-04-16T06:46:49;9.50;;;8.60;;
20535;SDS011;10426;49.420;8.390;2023-04-16T06:49:16;9.40;;;8.52;;
20535;SDS011;10426;49.420;8.390;2023-04-16T06:51:43;9.57;;;8.57;;
20535;SDS011;10426;49.420;8.390;2023-04-16T06:54:09;9.57;;;8.67;;
20535;SDS011;10426;49.420;8.390;2023-04-16T06:56:36;9.40;;;8.60;;
20535;SDS011;10426;49.420;8.390;2023-04-16T06:59:03;8.93;;;8.13;;
20535;SDS011;10426;49.420;8.390;2023-04-16T07:01:29;8.48;;;7.68;;
20535;SDS011;10426;49.420;8.390;2023-04-16T07:03:57;8.88;;;8.18;;
20535;SDS011;10426;49.420;8.390;2023-04-16T07:06:24;9.68;;;8.88;;
20535;SDS011;10426;49.420;8.390;2023-04-16T07:08:51;10.35;;;9.43;;
20535;SDS011;10426;49.420;8.390;2023-04-16T07:11:18;9.60;;;8.73;;
20535;SDS011;10426;49.420;8.390;2023-04-16T07:13:45;10.02;;;9.13;;
20535;SDS011;10426;49.420;8.390;2023-04-16T07:16:11;9.82;;;8.93;;
20535;SDS011;10426;49.420;8.390;2023-04-16T07:18:38;10.60;;;9.50;;
20535;SDS011;10426;49.420;8.390;2023-04-16T07:21:06;10.75;;;9.77;;
20535;SDS011;10426;49.420;8.390;2023-04-16T07:23:33;11.00;;;9.90;;
20535;SDS011;10426;49.420;8.390;2023-04-16T07:25:59;11.77;;;10.68;;
20535;SDS011;10426;49.420;8.390;2023-04-16T07:28:26;11.38;;;10.27;;
20535;SDS011;10426;49.420;8.390;2023-04-16T07:30:52;11.20;;;10.10;;
20535;SDS011;10426;49.420;8.390;2023-04-16T07:33:19;10.80;;;9.80;;
20535;SDS011;10426;49.420;8.390;2023-04-16T07:35:46;10.60;;;9.60;;
20535;SDS011;10426;49.420;8.390;2023-04-16T07:38:14;16.33;;;12.55;;
20535;SDS011;10426;49.420;8.390;2023-04-16T07:40:41;11.45;;;10.35;;
20535;SDS011;10426;49.420;8.390;2023-04-16T07:43:07;11.18;;;10.07;;
20535;SDS011;10426;49.420;8.390;2023-04-16T07:45:34;11.18;;;10.07;;
20535;SDS011;10426;49.420;8.390;2023-04-16T07:48:01;10.63;;;9.63;;
20535;SDS011;10426;49.420;8.390;2023-04-16T07:50:28;10.63;;;9.63;;
20535;SDS011;10426;49.420;8.390;2023-04-16T07:52:54;10.57;;;9.55;;
20535;SDS011;10426;49.420;8.390;2023-04-16T07:55:22;10.73;;;9.63;;
20535;SDS011;10426;49.420;8.390;2023-04-16T07:57:49;10.32;;;9.32;;
20535;SDS011;10426;49.420;8.390;2023-04-16T08:00:16;10.23;;;9.32;;
20535;SDS011;10426;49.420;8.390;2023-04-16T08:02:43;10.77;;;9.77;;
20535;SDS011;10426;49.420;8.390;2023-04-16T08:05:10;10.85;;;9.85;;
20535;SDS011;10426;49.420;8.390;2023-04-16T08:07:37;9.90;;;9.00;;
20535;SDS011;10426;49.420;8.390;2023-04-16T08:10:04;10.35;;;9.45;;
20535;SDS011;10426;49.420;8.390;2023-04-16T08:12:32;10.05;;;9.13;;
20535;SDS011;10426;49.420;8.390;2023-04-16T08:14:58;9.57;;;8.77;;
20535;SDS011;10426;49.420;8.390;2023-04-16T08:17:25;9.55;;;8.75;;
20535;SDS011;10426;49.420;8.390;2023-04-16T08:19:53;9.38;;;8.48;;
20535;SDS011;10426;49.420;8.390;2023-04-16T08:22:19;10.00;;;9.02;;
20535;SDS011;10426;49.420;8.390;2023-04-16T08:24:46;9.38;;;8.55;;
20535;SDS011;10426;49.420;8.390;2023-04-16T08:27:13;9.43;;;8.63;;
20535;SDS011;10426;49.420;8.390;2023-04-16T08:29:41;8.90;;;8.10;;
20535;SDS011;10426;49.420;8.390;2023-04-16T08:32:08;9.40;;;8.55;;
20535;SDS011;10426;49.420;8.390;2023-04-16T08:34:35;9.27;;;8.48;;
20535;SDS011;10426;49.420;8.390;2023-04-16T08:37:02;8.63;;;7.82;;
20535;SDS011;10426;49.420;8.390;2023-04-16T08:39:28;8.95;;;8.20;;
20535;SDS011;10426;49.420;8.390;2023-04-16T08:41:55;8.98;;;8.18;;
20535;SDS011;10426;49.420;8.390;2023-04-16T08:44:24;8.63;;;7.87;;
20535;SDS011;10426;49.420;8.390;2023-04-16T08:46:53;7.35;;;6.72;;
20535;SDS011;10426;49.420;8.390;2023-04-16T08:49:21;7.53;;;6.93;;
20535;SDS011;10426;49.420;8.390;2023-04-16T08:51:49;8.17;;;7.47;;
20535;SDS011;10426;49.420;8.390;2023-04-16T08:54:20;7.68;;;7.05;;
20535;SDS011;10426;49.420;8.390;2023-04-16T08:56:50;7.53;;;6.93;;
20535;SDS011;10426;49.420;8.390;2023-04-16T08:59:17;7.80;;;7.20;;
20535;SDS011;10426;49.420;8.390;2023-04-16T09:01:44;7.70;;;7.10;;
20535;SDS011;10426;49.420;8.390;2023-04-16T09:04:14;7.45;;;6.85;;
20535;SDS011;10426;49.420;8.390;2023-04-16T09:06:42;7.47;;;6.78;;
20535;SDS011;10426;49.420;8.390;2023-04-16T09:09:09;7.28;;;6.68;;
20535;SDS011;10426;49.420;8.390;2023-04-16T09:11:36;7.90;;;7.25;;
20535;SDS011;10426;49.420;8.390;2023-04-16T09:14:04;8.30;;;7.60;;
20535;SDS011;10426;49.420;8.390;2023-04-16T09:16:34;8.40;;;7.70;;
20535;SDS011;10426;49.420;8.390;2023-04-16T09:19:01;8.60;;;7.90;;
20535;SDS011;10426;49.420;8.390;2023-04-16T09:21:29;9.43;;;8.53;;
20535;SDS011;10426;49.420;8.390;2023-04-16T09:23:56;9.27;;;8.40;;
20535;SDS011;10426;49.420;8.390;2023-04-16T09:26:23;10.25;;;9.27;;
20535;SDS011;10426;49.420;8.390;2023-04-16T09:28:50;10.52;;;9.52;;
20535;SDS011;10426;49.420;8.390;2023-04-16T09:31:17;10.35;;;9.35;;
20535;SDS011;10426;49.420;8.390;2023-04-16T09:33:59;11.00;;;9.82;;
20535;SDS011;10426;49.420;8.390;2023-04-16T09:36:26;10.80;;;9.80;;
20535;SDS011;10426;49.420;8.390;2023-04-16T09:38:54;11.30;;;10.18;;
20535;SDS011;10426;49.420;8.390;2023-04-16T09:41:23;11.35;;;10.15;;
20535;SDS011;10426;49.420;8.390;2023-04-16T09:43:53;11.30;;;10.20;;
20535;SDS011;10426;49.420;8.390;2023-04-16T09:46:21;10.90;;;9.80;;
20535;SDS011;10426;49.420;8.390;2023-04-16T09:48:47;10.75;;;9.65;;
20535;SDS011;10426;49.420;8.390;2023-04-16T09:51:14;10.73;;;9.63;;
20535;SDS011;10426;49.420;8.390;2023-04-16T09:53:40;11.80;;;10.60;;
20535;SDS011;10426;49.420;8.390;2023-04-16T09:56:10;11.32;;;10.23;;
20535;SDS011;10426;49.420;8.390;2023-04-16T09:58:37;11.77;;;10.67;;
20535;SDS011;10426;49.420;8.390;2023-04-16T10:01:04;11.43;;;10.32;;
20535;SDS011;10426;49.420;8.390;2023-04-16T10:03:32;11.30;;;10.20;;
20535;SDS011;10426;49.420;8.390;2023-04-16T10:06:00;11.70;;;10.60;;
20535;SDS011;10426;49.420;8.390;2023-04-16T10:08:27;10.80;;;9.70;;
20535;SDS011;10426;49.420;8.390;2023-04-16T10:10:54;10.18;;;9.27;;
20535;SDS011;10426;49.420;8.390;2023-04-16T10:13:23;10.18;;;9.25;;
20535;SDS011;10426;49.420;8.390;2023-04-16T10:15:53;10.90;;;9.80;;
20535;SDS011;10426;49.420;8.390;2023-04-16T10:18:20;11.20;;;10.20;;
20535;SDS011;10426;49.420;8.390;2023-04-16T10:20:47;11.00;;;9.90;;
20535;SDS011;10426;49.420;8.390;2023-04-16T10:23:14;11.18;;;10.07;;
20535;SDS011;10426;49.420;8.390;2023-04-16T10:25:41;11.40;;;10.30;;
20535;SDS011;10426;49.420;8.390;2023-04-16T10:28:09;11.82;;;10.38;;
20535;SDS011;10426;49.420;8.390;2023-04-16T10:30:37;10.30;;;9.40;;
20535;SDS011;10426;49.420;8.390;2023-04-16T10:33:05;10.40;;;9.40;;
20535;SDS011;10426;49.420;8.390;2023-04-16T10:35:31;10.80;;;9.80;;
20535;SDS011;10426;49.420;8.390;2023-04-16T10:38:04;10.25;;;9.30;;
20535;SDS011;10426;49.420;8.390;2023-04-16T10:40:46;10.90;;;9.80;;
20535;SDS011;10426;49.420;8.390;2023-04-16T10:43:15;11.10;;;10.05;;
20535;SDS011;10426;49.420;8.390;2023-04-16T10:45:43;10.90;;;9.90;;
20535;SDS011;10426;49.420;8.390;2023-04-16T10:48:10;10.63;;;9.73;;
20535;SDS011;10426;49.420;8.390;2023-04-16T10:50:39;10.73;;;9.63;;
20535;SDS011;10426;49.420;8.390;2023-04-16T10:53:18;11.10;;;10.05;;
20535;SDS011;10426;49.420;8.390;2023-04-16T10:55:55;10.30;;;9.40;;
20535;SDS011;10426;49.420;8.390;2023-04-16T10:58:28;10.07;;;9.18;;
20535;SDS011;10426;49.420;8.390;2023-04-16T11:00:56;10.03;;;9.10;;
20535;SDS011;10426;49.420;8.390;2023-04-16T11:03:24;10.00;;;9.10;;
20535;SDS011;10426;49.420;8.390;2023-04-16T11:05:51;10.10;;;9.20;;
20535;SDS011;10426;49.420;8.390;2023-04-16T11:08:18;11.00;;;9.90;;
20535;SDS011;10426;49.420;8.390;2023-04-16T11:10:45;10.80;;;9.77;;
20535;SDS011;10426;49.420;8.390;2023-04-16T11:13:12;10.85;;;9.85;;
20535;SDS011;10426;49.420;8.390;2023-04-16T11:15:39;11.75;;;10.55;;
20535;SDS011;10426;49.420;8.390;2023-04-16T11:18:07;11.60;;;10.50;;
20535;SDS011;10426;49.420;8.390;2023-04-16T11:20:34;11.60;;;10.48;;
20535;SDS011;10426;49.420;8.390;2023-04-16T11:23:00;11.93;;;10.80;;
20535;SDS011;10426;49.420;8.390;2023-04-16T11:25:28;12.18;;;10.98;;
20535;SDS011;10426;49.420;8.390;2023-04-16T11:27:55;12.43;;;11.23;;
20535;SDS011;10426;49.420;8.390;2023-04-16T11:30:27;12.77;;;11.55;;
20535;SDS011;10426;49.420;8.390;2023-04-16T11:32:53;12.95;;;11.65;;
20535;SDS011;10426;49.420;8.390;2023-04-16T11:35:22;12.95;;;11.65;;
20535;SDS011;10426;49.420;8.390;2023-04-16T11:37:48;13.50;;;12.10;;
20535;SDS011;10426;49.420;8.390;2023-04-16T11:40:15;13.23;;;11.93;;
20535;SDS011;10426;49.420;8.390;2023-04-16T11:42:41;14.23;;;12.82;;
20535;SDS011;10426;49.420;8.390;2023-04-16T11:45:09;13.40;;;12.10;;
20535;SDS011;10426;49.420;8.390;2023-04-16T11:47:42;13.45;;;12.05;;
20535;SDS011;10426;49.420;8.390;2023-04-16T11:50:19;13.40;;;12.10;;
20535;SDS011;10426;49.420;8.390;2023-04-16T11:52:48;13.70;;;12.30;;
20535;SDS011;10426;49.420;8.390;2023-04-16T11:55:15;13.68;;;12.32;;
20535;SDS011;10426;49.420;8.390;2023-04-16T11:57:42;13.63;;;12.32;;
20535;SDS011;10426;49.420;8.390;2023-04-16T12:00:10;14.13;;;12.63;;
20535;SDS011;10426;49.420;8.390;2023-04-16T12:02:38;13.60;;;12.20;;
20535;SDS011;10426;49.420;8.390;2023-04-16T12:05:06;13.43;;;12.13;;
20535;SDS011;10426;49.420;8.390;2023-04-16T12:07:42;13.40;;;12.10;;
20535;SDS011;10426;49.420;8.390;2023-04-16T12:10:10;13.17;;;11.80;;
20535;SDS011;10426;49.420;8.390;2023-04-16T12:12:37;14.10;;;12.70;;
20535;SDS011;10426;49.420;8.390;2023-04-16T12:15:04;16.13;;;12.73;;
20535;SDS011;10426;49.420;8.390;2023-04-16T12:17:31;13.43;;;12.02;;
20535;SDS011;10426;49.420;8.390;2023-04-16T12:19:58;14.25;;;12.50;;
20535;SDS011;10426;49.420;8.390;2023-04-16T12:22:26;13.73;;;12.32;;
20535;SDS011;10426;49.420;8.390;2023-04-16T12:24:54;13.00;;;11.60;;
20535;SDS011;10426;49.420;8.390;2023-04-16T12:27:22;13.10;;;11.80;;
20535;SDS011;10426;49.420;8.390;2023-04-16T12:30:01;13.68;;;12.27;;
20535;SDS011;10426;49.420;8.390;2023-04-16T12:32:28;13.98;;;12.45;;
20535;SDS011;10426;49.420;8.390;2023-04-16T12:34:54;13.65;;;12.35;;
20535;SDS011;10426;49.420;8.390;2023-04-16T12:37:21;13.40;;;12.03;;
20535;SDS011;10426;49.420;8.390;2023-04-16T12:39:49;13.60;;;12.30;;
20535;SDS011;10426;49.420;8.390;2023-04-16T12:42:16;13.48;;;12.10;;
20535;SDS011;10426;49.420;8.390;2023-04-16T12:44:44;12.63;;;11.40;;
20535;SDS011;10426;49.420;8.390;2023-04-16T12:47:11;13.33;;;12.03;;
20535;SDS011;10426;49.420;8.390;2023-04-16T12:49:37;13.63;;;12.32;;
20535;SDS011;10426;49.420;8.390;2023-04-16T12:52:04;13.68;;;12.32;;
20535;SDS011;10426;49.420;8.390;2023-04-16T12:54:31;13.85;;;12.45;;
20535;SDS011;10426;49.420;8.390;2023-04-16T12:56:57;14.07;;;12.63;;
20535;SDS011;10426;49.420;8.390;2023-04-16T12:59:24;13.85;;;12.35;;
20535;SDS011;10426;49.420;8.390;2023-04-16T13:01:52;14.73;;;13.32;;
20535;SDS011;10426;49.420;8.390;2023-04-16T13:04:19;14.50;;;13.00;;
20535;SDS011;10426;49.420;8.390;2023-04-16T13:06:45;14.15;;;12.52;;
20535;SDS011;10426;49.420;8.390;2023-04-16T13:09:12;13.82;;;12.43;;
20535;SDS011;10426;49.420;8.390;2023-04-16T13:11:39;14.30;;;12.90;;
20535;SDS011;10426;49.420;8.390;2023-04-16T13:14:06;14.10;;;12.70;;
20535;SDS011;10426;49.420;8.390;2023-04-16T13:16:33;14.23;;;12.73;;
20535;SDS011;10426;49.420;8.390;2023-04-16T13:19:00;14.73;;;13.27;;
20535;SDS011;10426;49.420;8.390;2023-04-16T13:21:27;14.82;;;13.35;;
20535;SDS011;10426;49.420;8.390;2023-04-16T13:23:54;15.15;;;13.65;;
20535;SDS011;10426;49.420;8.390;2023-04-16T13:26:20;14.90;;;13.40;;
20535;SDS011;10426;49.420;8.390;2023-04-16T13:28:47;14.98;;;13.48;;
20535;SDS011;10426;49.420;8.390;2023-04-16T13:31:14;15.27;;;13.68;;
20535;SDS011;10426;49.420;8.390;2023-04-16T13:33:44;16.67;;;14.98;;
20535;SDS011;10426;49.420;8.390;2023-04-16T13:36:12;19.25;;;17.25;;
20535;SDS011;10426;49.420;8.390;2023-04-16T13:38:39;15.68;;;14.15;;
20535;SDS011;10426;49.420;8.390;2023-04-16T13:41:06;15.80;;;14.25;;
20535;SDS011;10426;49.420;8.390;2023-04-16T13:43:33;15.90;;;14.30;;
20535;SDS011;10426;49.420;8.390;2023-04-16T13:45:59;17.13;;;15.38;;
20535;SDS011;10426;49.420;8.390;2023-04-16T13:48:26;15.98;;;14.27;;
20535;SDS011;10426;49.420;8.390;2023-04-16T13:50:53;16.42;;;14.82;;
20535;SDS011;10426;49.420;8.390;2023-04-16T13:53:21;16.27;;;14.57;;
20535;SDS011;10426;49.420;8.390;2023-04-16T13:55:48;17.25;;;15.45;;
20535;SDS011;10426;49.420;8.390;2023-04-16T13:58:15;17.10;;;15.38;;
20535;SDS011;10426;49.420;8.390;2023-04-16T14:00:41;17.20;;;15.40;;
20535;SDS011;10426;49.420;8.390;2023-04-16T14:03:08;18.33;;;16.40;;
20535;SDS011;10426;49.420;8.390;2023-04-16T14:05:35;17.83;;;16.00;;
20535;SDS011;10426;49.420;8.390;2023-04-16T14:08:01;16.65;;;14.95;;
20535;SDS011;10426;49.420;8.390;2023-04-16T14:10:29;17.15;;;15.45;;
20535;SDS011;10426;49.420;8.390;2023-04-16T14:12:56;16.50;;;14.55;;
20535;SDS011;10426;49.420;8.390;2023-04-16T14:15:23;17.63;;;15.82;;
20535;SDS011;10426;49.420;8.390;2023-04-16T14:17:51;17.00;;;15.23;;
20535;SDS011;10426;49.420;8.390;2023-04-16T14:20:18;18.70;;;16.42;;
20535;SDS011;10426;49.420;8.390;2023-04-16T14:22:45;17.17;;;15.48;;
20535;SDS011;10426;49.420;8.390;2023-04-16T14:25:11;17.63;;;15.65;;
20535;SDS011;10426;49.420;8.390;2023-04-16T14:27:39;17.67;;;15.85;;
20535;SDS011;10426;49.420;8.390;2023-04-16T14:30:07;17.50;;;15.75;;